createdAt,value
2018-12-04T12:56:14.159Z,20.21
2018-12-04T12:59:36.028Z,20.18
2018-12-04T13:02:57.977Z,20.28
2018-12-04T13:06:19.773Z,19.55
2018-12-04T13:09:41.640Z,18.73
2018-12-04T13:13:03.521Z,18.67
2018-12-04T13:16:25.433Z,19.42
2018-12-04T13:19:47.322Z,19.78
2018-12-04T13:23:09.284Z,19.99
2018-12-04T13:26:31.179Z,20.1
2018-12-04T13:29:53.077Z,20.17
2018-12-04T13:33:14.905Z,20.18
2018-12-04T13:36:36.699Z,20.2
2018-12-04T13:39:58.542Z,20.16
2018-12-04T13:43:20.476Z,20.11
2018-12-04T13:46:43.947Z,20.16
2018-12-04T13:50:04.205Z,20.29
2018-12-04T13:53:26.013Z,20.31
2018-12-04T13:56:47.872Z,20.38
2018-12-04T14:00:09.852Z,20.33
2018-12-04T14:03:31.679Z,20.42
2018-12-04T14:06:53.555Z,20.42
2018-12-04T14:10:15.336Z,20.39
2018-12-04T14:13:37.232Z,20.43
2018-12-04T14:16:59.120Z,20.49
2018-12-04T14:20:20.833Z,20.49
2018-12-04T14:23:42.743Z,20.5
2018-12-04T14:27:04.521Z,20.51
2018-12-04T14:30:26.618Z,20.54
2018-12-04T14:53:05.578Z,20.54
2018-12-04T14:56:27.460Z,20.41
2018-12-04T14:59:49.340Z,20.38
2018-12-04T15:03:11.416Z,20.39
2018-12-04T15:06:35.750Z,20.33
2018-12-04T15:09:55.317Z,20.33
2018-12-04T15:13:17.199Z,20.38
2018-12-04T15:16:39.174Z,20.39
2018-12-04T15:20:01.176Z,20.46
2018-12-04T15:23:23.135Z,20.41
2018-12-04T15:26:45.086Z,20.39
2018-12-04T15:30:07.042Z,20.33
2018-12-04T15:33:29.029Z,20.32
2018-12-04T15:36:51.082Z,20.38
2018-12-04T15:40:13.075Z,20.36
2018-12-04T15:43:35.024Z,20.42
2018-12-04T15:46:56.974Z,20.43
2018-12-04T15:50:19.021Z,20.43
2018-12-04T15:53:40.967Z,20.46
2018-12-04T15:57:02.981Z,20.5
2018-12-04T16:00:25.041Z,20.5
2018-12-04T16:03:46.973Z,20.51
2018-12-04T16:07:08.974Z,20.49
2018-12-04T16:10:30.936Z,20.5
2018-12-04T16:13:52.869Z,20.31
2018-12-04T16:17:14.853Z,20.24
2018-12-04T16:20:39.996Z,20.17
2018-12-04T16:23:58.977Z,20.14
2018-12-04T16:27:20.940Z,20.13
2018-12-04T16:30:42.881Z,20.2
2018-12-04T16:34:04.883Z,20.29
2018-12-04T16:37:26.947Z,20.2
2018-12-04T16:40:49.007Z,20.29
2018-12-04T16:44:10.940Z,20.26
2018-12-04T16:47:33.033Z,20.31
2018-12-04T16:50:54.959Z,20.31
2018-12-04T16:54:16.975Z,20.31
2018-12-04T16:57:39.066Z,20.29
2018-12-04T17:01:00.979Z,20.32
2018-12-04T17:04:23.070Z,20.31
2018-12-04T17:07:44.997Z,20.35
2018-12-04T17:11:07.384Z,20.32
2018-12-04T17:14:29.055Z,20.29
2018-12-04T17:17:50.976Z,20.31
2018-12-04T17:21:13.035Z,20.26
2018-12-04T17:24:34.979Z,20.32
2018-12-04T17:27:57.005Z,20.36
2018-12-04T17:31:20.983Z,20.39
2018-12-04T17:34:41.070Z,20.41
2018-12-04T17:38:03.073Z,20.36
2018-12-04T17:41:24.984Z,20.38
2018-12-04T17:44:47.050Z,20.33
2018-12-04T17:48:09.032Z,20.26
2018-12-04T17:51:30.949Z,20.24
2018-12-04T17:54:52.944Z,20.18
2018-12-04T17:58:14.939Z,20.14
2018-12-04T18:01:36.987Z,20.13
2018-12-04T18:04:58.901Z,20.14
2018-12-04T18:08:20.895Z,20.06
2018-12-04T18:11:42.870Z,20.1
2018-12-04T18:15:04.876Z,20.1
2018-12-04T18:18:26.987Z,20.08
2018-12-04T18:21:48.900Z,20.08
2018-12-04T18:25:10.991Z,20.14
2018-12-04T18:28:33.013Z,20.1
2018-12-04T18:31:54.957Z,20.08
2018-12-04T18:35:17.034Z,20.17
2018-12-04T18:38:38.958Z,20.28
2018-12-04T18:42:01.035Z,20.13
2018-12-04T18:45:22.977Z,20.05
2018-12-04T18:48:45.072Z,20.01
2018-12-04T18:52:06.990Z,19.98
2018-12-04T18:55:29.016Z,19.94
2018-12-04T18:58:51.076Z,19.91
2018-12-04T19:02:13.060Z,19.94
2018-12-04T19:05:34.979Z,19.91
2018-12-04T19:08:57.042Z,19.91
2018-12-04T19:12:18.950Z,19.91
2018-12-04T19:15:40.942Z,19.86
2018-12-04T19:19:02.991Z,19.88
2018-12-04T19:22:24.976Z,19.83
2018-12-04T19:25:46.988Z,19.83
2018-12-04T19:29:08.926Z,19.83
2018-12-04T19:32:30.953Z,19.87
2018-12-04T19:35:53.037Z,19.81
2018-12-04T19:39:15.051Z,19.78
2018-12-04T19:42:37.072Z,19.77
2018-12-04T19:46:01.509Z,19.81
2018-12-04T19:49:21.032Z,19.78
2018-12-04T19:52:43.099Z,19.83
2018-12-04T19:56:05.112Z,19.73
2018-12-04T19:59:27.046Z,19.76
2018-12-04T20:02:49.064Z,19.78
2018-12-04T20:06:11.132Z,19.73
2018-12-04T20:09:33.062Z,19.78
2018-12-04T20:12:55.153Z,19.73
2018-12-04T20:16:17.116Z,19.7
2018-12-04T20:19:39.205Z,19.78
2018-12-04T20:23:01.151Z,19.72
2018-12-04T20:26:23.221Z,19.72
2018-12-04T20:29:45.160Z,19.72
2018-12-04T20:33:07.184Z,19.68
2018-12-04T20:36:29.208Z,19.7
2018-12-04T20:39:51.210Z,19.65
2018-12-04T20:43:13.211Z,19.72
2018-12-04T20:46:35.267Z,19.67
2018-12-04T20:49:57.345Z,19.68
2018-12-04T20:53:19.269Z,19.64
2018-12-04T20:56:41.363Z,19.68
2018-12-04T21:00:03.365Z,19.67
2018-12-04T21:03:25.376Z,19.67
2018-12-04T21:06:47.402Z,19.62
2018-12-04T21:10:09.413Z,19.64
2018-12-04T21:13:31.479Z,19.65
2018-12-04T21:16:53.382Z,19.61
2018-12-04T21:20:15.496Z,19.64
2018-12-04T21:23:37.470Z,19.6
2018-12-04T21:26:59.581Z,19.61
2018-12-04T21:30:21.500Z,19.57
2018-12-04T21:33:43.553Z,19.62
2018-12-04T21:37:05.662Z,19.6
2018-12-04T21:40:27.613Z,19.57
2018-12-04T21:43:49.658Z,19.61
2018-12-04T21:47:11.724Z,19.57
2018-12-04T21:50:33.797Z,19.57
2018-12-04T21:53:55.913Z,19.55
2018-12-04T21:57:17.873Z,19.54
2018-12-04T22:00:39.939Z,19.54
2018-12-04T22:04:01.997Z,19.55
2018-12-04T22:07:24.127Z,19.54
2018-12-04T22:10:46.161Z,19.54
2018-12-04T22:14:08.229Z,19.53
2018-12-04T22:17:30.154Z,19.49
2018-12-04T22:20:52.317Z,19.5
2018-12-04T22:24:14.265Z,19.49
2018-12-04T22:27:36.284Z,19.49
2018-12-04T22:30:58.412Z,19.5
2018-12-04T22:34:20.386Z,19.53
2018-12-04T22:37:42.424Z,19.54
2018-12-04T22:41:04.542Z,19.54
2018-12-04T22:44:26.507Z,19.49
2018-12-04T22:47:48.633Z,19.42
2018-12-04T22:51:10.703Z,19.46
2018-12-04T22:54:32.693Z,19.42
2018-12-04T22:57:54.720Z,19.38
2018-12-04T23:01:16.708Z,19.39
2018-12-04T23:04:38.719Z,19.45
2018-12-04T23:08:00.769Z,19.38
2018-12-04T23:11:22.788Z,19.36
2018-12-04T23:14:44.893Z,19.4
2018-12-04T23:18:06.858Z,19.39
2018-12-04T23:21:28.955Z,19.35
2018-12-04T23:24:50.973Z,19.32
2018-12-04T23:28:13.024Z,19.36
2018-12-04T23:31:35.055Z,19.35
2018-12-04T23:34:57.015Z,19.32
2018-12-04T23:38:19.010Z,19.35
2018-12-04T23:41:41.040Z,19.31
2018-12-04T23:45:03.051Z,19.31
2018-12-04T23:48:25.052Z,19.32
2018-12-04T23:51:47.130Z,19.32
2018-12-04T23:55:09.102Z,19.35
2018-12-04T23:58:31.139Z,19.31
